Terminal Aerodrome Forecast
Issued by NWS

Home | Current Version | Previous Version | Text Only | Print | Product List | Glossary On
Versions: 1 2 3 4 5 6 7 8 9 10 11 12 13 14 15 16 17 18 19 20 21 22 23 24 25 26
733
FTUS41 KRLX 280900 AAA
TAFCKB
TAF AMD
KCKB 280900Z 2809/2906 VRB04KT P6SM SKC
     FM281800 20006KT P6SM FEW250
     FM282100 05005KT P6SM SCT250
     FM290000 05004KT P6SM BKN080=

USA.gov is the U.S. government's official web portal to all federal, state and local government web resources and services.